createdAt,value
2022-10-30T00:02:11.761Z,14.70
2022-10-30T00:04:39.447Z,14.70
2022-10-30T00:07:06.625Z,14.70
2022-10-30T00:09:33.940Z,14.70
2022-10-30T00:12:01.318Z,14.60
2022-10-30T00:14:30.948Z,14.60
2022-10-30T00:16:58.284Z,14.60
2022-10-30T00:19:28.810Z,14.50
2022-10-30T00:24:24.488Z,14.50
2022-10-30T00:26:52.033Z,14.50
2022-10-30T00:29:20.019Z,14.40
2022-10-30T00:31:51.233Z,14.40
2022-10-30T00:34:18.838Z,14.40
2022-10-30T00:36:45.954Z,14.40
2022-10-30T00:39:15.226Z,14.40
2022-10-30T00:41:43.091Z,14.40
2022-10-30T00:44:28.961Z,14.40
2022-10-30T00:46:56.783Z,14.40
2022-10-30T00:49:24.333Z,14.30
2022-10-30T00:51:53.621Z,14.30
2022-10-30T00:54:24.916Z,14.30
2022-10-30T00:56:52.448Z,14.30
2022-10-30T00:59:28.726Z,14.30
2022-10-30T01:01:56.092Z,14.30
2022-10-30T01:04:28.995Z,14.30
2022-10-30T01:06:58.692Z,14.30
2022-10-30T01:09:26.336Z,14.30
2022-10-30T01:11:53.743Z,14.30
2022-10-30T01:14:21.658Z,14.20
2022-10-30T01:17:12.431Z,14.20
2022-10-30T01:20:08.092Z,14.20
2022-10-30T01:23:05.071Z,14.20
2022-10-30T01:25:31.942Z,14.20
2022-10-30T01:28:17.830Z,14.20
2022-10-30T01:30:47.671Z,14.20
2022-10-30T01:33:27.142Z,14.10
2022-10-30T01:35:59.191Z,14.10
2022-10-30T01:38:36.988Z,14.20
2022-10-30T01:41:03.934Z,14.10
2022-10-30T01:43:31.755Z,14.20
2022-10-30T01:46:02.244Z,14.20
2022-10-30T01:48:38.291Z,14.20
2022-10-30T01:51:15.730Z,14.20
2022-10-30T01:54:01.551Z,14.20
2022-10-30T01:56:29.862Z,14.20
2022-10-30T01:59:04.571Z,14.30
2022-10-30T02:01:33.351Z,14.30
2022-10-30T02:06:28.528Z,14.30
2022-10-30T02:08:56.686Z,14.30
2022-10-30T02:11:26.813Z,14.40
2022-10-30T02:13:55.308Z,14.40
2022-10-30T02:16:23.165Z,14.40
2022-10-30T02:18:50.174Z,14.50
2022-10-30T02:21:17.242Z,14.40
2022-10-30T02:23:44.224Z,14.50
2022-10-30T02:26:12.353Z,14.50
2022-10-30T02:28:39.256Z,14.50
2022-10-30T02:31:06.696Z,14.50
2022-10-30T02:33:34.671Z,14.50
2022-10-30T02:36:01.701Z,14.50
2022-10-30T02:38:28.452Z,14.60
2022-10-30T02:40:57.168Z,14.50
2022-10-30T02:43:23.979Z,14.50
2022-10-30T02:45:52.216Z,14.50
2022-10-30T02:48:19.625Z,14.50
2022-10-30T02:50:47.782Z,14.50
2022-10-30T02:53:14.568Z,14.50
2022-10-30T02:55:42.347Z,14.50
2022-10-30T02:58:09.115Z,14.50
2022-10-30T03:00:36.194Z,14.50
2022-10-30T03:03:03.502Z,14.50
2022-10-30T03:05:30.238Z,14.50
2022-10-30T03:07:57.345Z,14.50
2022-10-30T03:10:24.433Z,14.50
2022-10-30T03:12:52.323Z,14.50
2022-10-30T03:15:19.136Z,14.50
2022-10-30T03:17:45.994Z,14.50
2022-10-30T03:20:12.741Z,14.50
2022-10-30T03:22:39.540Z,14.50
2022-10-30T03:25:07.569Z,14.50
2022-10-30T03:27:34.552Z,14.50
2022-10-30T03:30:01.438Z,14.50
2022-10-30T03:32:29.292Z,14.50
2022-10-30T03:34:56.255Z,14.50
2022-10-30T03:37:22.992Z,14.50
2022-10-30T03:39:49.904Z,14.50
2022-10-30T03:42:16.927Z,14.40
2022-10-30T03:44:43.855Z,14.40
2022-10-30T03:49:41.254Z,14.40
2022-10-30T03:52:14.151Z,14.40
2022-10-30T03:54:41.070Z,14.40
2022-10-30T03:57:09.500Z,14.30
2022-10-30T03:59:44.416Z,14.40
2022-10-30T04:02:34.521Z,14.40
2022-10-30T04:05:01.386Z,14.40
2022-10-30T04:07:29.507Z,14.40
2022-10-30T04:09:56.249Z,14.40
2022-10-30T04:12:23.065Z,14.40
2022-10-30T04:14:50.602Z,14.40
2022-10-30T04:17:17.630Z,14.40
2022-10-30T04:19:44.417Z,14.40
2022-10-30T04:22:12.469Z,14.40
2022-10-30T04:24:40.324Z,14.40
2022-10-30T04:27:08.545Z,14.40
2022-10-30T04:29:37.813Z,14.40
2022-10-30T04:34:39.304Z,14.40
2022-10-30T04:37:06.695Z,14.40
2022-10-30T04:39:34.078Z,14.40
2022-10-30T04:42:10.864Z,14.40
2022-10-30T04:44:38.921Z,14.40
2022-10-30T04:47:07.325Z,14.40
2022-10-30T04:49:34.193Z,14.40
2022-10-30T04:52:01.272Z,14.40
2022-10-30T04:54:28.794Z,14.40
2022-10-30T04:56:56.423Z,14.40
2022-10-30T04:59:23.509Z,14.40
2022-10-30T05:01:52.843Z,14.40
2022-10-30T05:04:19.893Z,14.40
2022-10-30T05:06:47.083Z,14.40
2022-10-30T05:09:16.019Z,14.40
2022-10-30T05:11:43.063Z,14.40
2022-10-30T05:14:11.624Z,14.40
2022-10-30T05:16:38.595Z,14.40
2022-10-30T05:19:06.200Z,14.40
2022-10-30T05:21:34.333Z,14.40
2022-10-30T05:24:01.441Z,14.40
2022-10-30T05:26:34.671Z,14.30
2022-10-30T05:29:01.476Z,14.30
2022-10-30T05:31:28.589Z,14.30
2022-10-30T05:34:18.178Z,14.30
2022-10-30T05:36:51.066Z,14.30
2022-10-30T05:39:19.469Z,14.30
2022-10-30T05:41:49.162Z,14.30
2022-10-30T05:44:28.835Z,14.30
2022-10-30T05:47:05.360Z,14.30
2022-10-30T05:49:34.339Z,14.30
2022-10-30T05:52:03.466Z,14.30
2022-10-30T05:54:30.458Z,14.30
2022-10-30T05:57:09.863Z,14.30
2022-10-30T05:59:38.961Z,14.20
2022-10-30T06:02:05.752Z,14.20
2022-10-30T06:04:32.675Z,14.20
2022-10-30T06:07:02.356Z,14.20
2022-10-30T06:09:29.112Z,14.20
2022-10-30T06:12:01.853Z,14.20
2022-10-30T06:14:51.888Z,14.10
2022-10-30T06:17:18.886Z,14.10
2022-10-30T06:19:54.682Z,14.10
2022-10-30T06:23:00.714Z,14.10
2022-10-30T06:25:41.122Z,14.10
2022-10-30T06:28:21.274Z,14.10
2022-10-30T06:30:48.156Z,14.10
2022-10-30T06:33:14.985Z,14.00
2022-10-30T06:35:50.990Z,14.00
2022-10-30T06:38:19.057Z,14.00
2022-10-30T06:40:48.356Z,14.00
2022-10-30T06:43:36.007Z,14.00
2022-10-30T06:46:25.685Z,14.00
2022-10-30T06:48:56.070Z,14.00
2022-10-30T06:51:23.956Z,14.00
2022-10-30T06:53:53.623Z,14.00
2022-10-30T06:56:38.683Z,14.00
2022-10-30T06:59:10.621Z,14.00
2022-10-30T07:01:46.832Z,14.00
2022-10-30T07:04:36.239Z,14.00
2022-10-30T07:07:04.019Z,14.00
2022-10-30T07:09:31.150Z,14.10
2022-10-30T07:12:06.834Z,14.10
2022-10-30T07:14:54.242Z,14.10
2022-10-30T07:17:58.155Z,14.10
2022-10-30T07:20:28.511Z,14.10
2022-10-30T07:22:55.438Z,14.10
2022-10-30T07:25:22.609Z,14.10
2022-10-30T07:28:04.073Z,14.10
2022-10-30T07:30:54.407Z,14.20
2022-10-30T07:33:40.942Z,14.20
2022-10-30T07:36:21.365Z,14.20
2022-10-30T07:39:10.969Z,14.20
2022-10-30T07:41:45.954Z,14.20
2022-10-30T07:44:34.402Z,14.20
2022-10-30T07:47:29.615Z,14.30
2022-10-30T07:50:03.021Z,14.30
2022-10-30T07:52:33.051Z,14.30
2022-10-30T07:55:00.561Z,14.40
2022-10-30T07:57:46.463Z,14.40
2022-10-30T08:00:31.893Z,14.40
2022-10-30T08:03:11.343Z,14.40
2022-10-30T08:05:48.382Z,14.50
2022-10-30T08:08:22.236Z,14.50
2022-10-30T08:10:59.355Z,14.50
2022-10-30T08:13:26.163Z,14.50
2022-10-30T08:15:53.641Z,14.50
2022-10-30T08:18:20.421Z,14.50
2022-10-30T08:20:50.792Z,14.50
2022-10-30T08:23:21.806Z,14.50
2022-10-30T08:25:48.598Z,14.50
2022-10-30T08:28:15.803Z,14.60
2022-10-30T08:30:44.433Z,14.60
2022-10-30T08:33:15.129Z,14.60
2022-10-30T08:35:58.266Z,14.60
2022-10-30T08:38:27.059Z,14.60
2022-10-30T08:41:11.386Z,14.60
2022-10-30T08:43:44.518Z,14.70
2022-10-30T08:46:11.282Z,14.70
2022-10-30T08:48:38.199Z,14.70
2022-10-30T08:51:07.216Z,14.70
2022-10-30T08:53:42.507Z,14.70
2022-10-30T08:56:14.244Z,14.80
2022-10-30T08:58:50.871Z,14.80
2022-10-30T09:01:19.245Z,14.80
2022-10-30T09:04:18.124Z,14.90
2022-10-30T09:07:05.422Z,14.90
2022-10-30T09:10:06.756Z,14.90
2022-10-30T09:12:35.862Z,15.00
2022-10-30T09:15:02.956Z,15.00
2022-10-30T09:17:35.958Z,15.00
2022-10-30T09:20:03.016Z,15.10
2022-10-30T09:22:39.862Z,15.10
2022-10-30T09:25:07.054Z,15.10
2022-10-30T09:27:47.081Z,15.20
2022-10-30T09:30:14.759Z,15.30
2022-10-30T09:32:55.064Z,15.30
2022-10-30T09:35:26.643Z,15.40
2022-10-30T09:37:54.181Z,15.40
2022-10-30T09:40:24.861Z,15.40
2022-10-30T09:42:53.893Z,15.50
2022-10-30T09:45:29.326Z,15.50
2022-10-30T09:48:04.109Z,15.60
2022-10-30T09:50:53.501Z,15.60
2022-10-30T09:53:30.628Z,15.70
2022-10-30T09:56:08.339Z,15.70
2022-10-30T09:58:35.654Z,15.80
2022-10-30T10:01:10.041Z,15.80
2022-10-30T10:03:42.014Z,15.80
2022-10-30T10:06:34.247Z,15.90
2022-10-30T10:09:22.189Z,15.90
2022-10-30T10:12:14.219Z,15.90
2022-10-30T10:14:43.601Z,16.00
2022-10-30T10:17:15.462Z,16.00
2022-10-30T10:19:49.028Z,16.00
2022-10-30T10:22:39.475Z,16.10
2022-10-30T10:25:08.667Z,16.10
2022-10-30T10:27:46.255Z,16.20
2022-10-30T10:30:18.429Z,16.20
2022-10-30T10:33:01.156Z,16.20
2022-10-30T10:35:47.570Z,16.30
2022-10-30T10:38:20.607Z,16.30
2022-10-30T10:40:56.592Z,16.40
2022-10-30T10:43:29.656Z,16.40
2022-10-30T10:46:15.349Z,16.40
2022-10-30T10:49:02.389Z,16.50
2022-10-30T10:51:34.975Z,16.50
2022-10-30T10:54:04.831Z,16.50
2022-10-30T10:56:33.957Z,16.60
2022-10-30T10:59:05.205Z,16.60
2022-10-30T11:01:39.661Z,16.60
2022-10-30T11:04:21.760Z,16.60
2022-10-30T11:06:51.029Z,16.70
2022-10-30T11:09:24.903Z,16.70
2022-10-30T11:11:52.723Z,16.70
2022-10-30T11:14:20.796Z,16.80
2022-10-30T11:17:02.667Z,16.80
2022-10-30T11:19:31.007Z,16.90
2022-10-30T11:21:58.326Z,17.00
2022-10-30T11:24:32.627Z,17.00
2022-10-30T11:27:19.806Z,17.00
2022-10-30T11:29:49.232Z,17.00
2022-10-30T11:32:18.958Z,17.00
2022-10-30T11:34:45.964Z,17.10
2022-10-30T11:37:59.085Z,17.10
2022-10-30T11:40:30.338Z,17.10
2022-10-30T11:42:57.561Z,17.10
2022-10-30T11:45:26.537Z,17.20
2022-10-30T11:47:55.128Z,17.20
2022-10-30T11:50:25.181Z,17.30
2022-10-30T11:53:03.114Z,17.30
2022-10-30T11:55:33.426Z,17.30
2022-10-30T11:58:00.880Z,17.40
2022-10-30T12:00:32.751Z,17.40
2022-10-30T12:03:06.136Z,17.40
2022-10-30T12:05:43.678Z,17.50
2022-10-30T12:08:15.378Z,17.50
2022-10-30T12:10:47.306Z,17.50
2022-10-30T12:13:22.005Z,17.50
2022-10-30T12:15:53.237Z,17.50
2022-10-30T12:18:22.560Z,17.60
2022-10-30T12:20:52.742Z,17.60
2022-10-30T12:23:22.090Z,17.60
2022-10-30T12:25:50.041Z,17.60
2022-10-30T12:28:18.106Z,17.60
2022-10-30T12:30:52.498Z,17.60
2022-10-30T12:33:28.449Z,17.70
2022-10-30T12:35:59.195Z,17.70
2022-10-30T12:38:42.391Z,17.70
2022-10-30T12:41:23.734Z,17.70
2022-10-30T12:44:03.855Z,17.70
2022-10-30T12:46:34.431Z,17.80
2022-10-30T12:49:11.078Z,17.80
2022-10-30T12:51:46.267Z,17.80
2022-10-30T12:54:31.917Z,17.90
2022-10-30T12:57:25.958Z,17.90
2022-10-30T13:00:14.830Z,17.90
2022-10-30T13:02:44.720Z,17.90
2022-10-30T13:05:32.120Z,17.90
2022-10-30T13:08:22.461Z,17.90
2022-10-30T13:10:55.158Z,17.90
2022-10-30T13:13:27.482Z,17.90
2022-10-30T13:16:00.623Z,17.90
2022-10-30T13:18:32.765Z,17.90
2022-10-30T13:20:59.567Z,17.90
2022-10-30T13:23:45.310Z,18.00
2022-10-30T13:26:21.016Z,18.00
2022-10-30T13:28:53.966Z,18.00
2022-10-30T13:31:35.771Z,18.00
2022-10-30T13:34:11.849Z,18.00
2022-10-30T13:36:55.927Z,18.00
2022-10-30T13:39:28.823Z,18.00
2022-10-30T13:41:55.606Z,18.00
2022-10-30T13:44:28.283Z,18.00
2022-10-30T13:46:59.609Z,18.00
2022-10-30T13:49:44.673Z,18.10
2022-10-30T13:52:15.677Z,18.10
2022-10-30T13:54:46.233Z,18.10
2022-10-30T13:57:19.257Z,18.10
2022-10-30T14:00:05.168Z,18.10
2022-10-30T14:02:42.356Z,18.10
2022-10-30T14:05:29.758Z,18.10
2022-10-30T14:08:15.512Z,18.10
2022-10-30T14:10:49.843Z,18.10
2022-10-30T14:13:27.849Z,18.10
2022-10-30T14:15:56.422Z,18.10
2022-10-30T14:18:26.395Z,18.10
2022-10-30T14:20:54.033Z,18.10
2022-10-30T14:23:25.674Z,18.10
2022-10-30T14:26:11.295Z,18.00
2022-10-30T14:28:44.435Z,18.00
2022-10-30T14:31:18.863Z,18.00
2022-10-30T14:33:57.516Z,18.00
2022-10-30T14:36:40.917Z,18.00
2022-10-30T14:39:10.761Z,18.00
2022-10-30T14:41:56.088Z,18.00
2022-10-30T14:44:27.827Z,18.00
2022-10-30T14:47:02.060Z,18.00
2022-10-30T14:49:31.974Z,18.00
2022-10-30T14:52:04.820Z,17.90
2022-10-30T14:54:39.796Z,17.90
2022-10-30T14:57:20.103Z,17.90
2022-10-30T14:59:47.401Z,17.90
2022-10-30T15:02:14.819Z,17.90
2022-10-30T15:04:44.913Z,17.80
2022-10-30T15:07:15.872Z,17.80
2022-10-30T15:09:55.057Z,17.80
2022-10-30T15:12:42.390Z,17.80
2022-10-30T15:15:16.274Z,17.70
2022-10-30T15:17:45.993Z,17.70
2022-10-30T15:20:24.161Z,17.60
2022-10-30T15:23:04.908Z,17.60
2022-10-30T15:25:37.444Z,17.50
2022-10-30T15:28:04.878Z,17.40
2022-10-30T15:30:33.002Z,17.40
2022-10-30T15:33:00.530Z,17.40
2022-10-30T15:35:28.665Z,17.40
2022-10-30T15:37:58.948Z,17.30
2022-10-30T15:40:25.990Z,17.30
2022-10-30T15:42:53.054Z,17.20
2022-10-30T15:45:24.027Z,17.10
2022-10-30T15:48:04.495Z,17.10
2022-10-30T15:50:32.492Z,17.10
2022-10-30T15:52:59.901Z,17.00
2022-10-30T15:55:29.154Z,17.00
2022-10-30T15:58:03.490Z,16.90
2022-10-30T16:00:33.241Z,16.90
2022-10-30T16:03:20.313Z,16.90
2022-10-30T16:05:47.145Z,16.80
2022-10-30T16:08:20.619Z,16.80
2022-10-30T16:10:48.249Z,16.70
2022-10-30T16:13:19.834Z,16.70
2022-10-30T16:15:51.045Z,16.70
2022-10-30T16:18:26.134Z,16.60
2022-10-30T16:20:54.648Z,16.60
2022-10-30T16:23:21.809Z,16.60
2022-10-30T16:25:53.315Z,16.50
2022-10-30T16:28:28.899Z,16.50
2022-10-30T16:31:04.304Z,16.40
2022-10-30T16:33:32.975Z,16.40
2022-10-30T16:36:02.298Z,16.30
2022-10-30T16:38:30.484Z,16.30
2022-10-30T16:40:57.794Z,16.30
2022-10-30T16:43:29.133Z,16.20
2022-10-30T16:45:57.547Z,16.20
2022-10-30T16:48:28.889Z,16.10
2022-10-30T16:51:00.269Z,16.10
2022-10-30T16:53:28.096Z,16.10
2022-10-30T16:55:55.668Z,16.00
2022-10-30T16:58:24.803Z,16.00
2022-10-30T17:00:54.965Z,16.00
2022-10-30T17:03:25.103Z,16.00
2022-10-30T17:06:24.107Z,15.90
2022-10-30T17:08:52.607Z,15.90
2022-10-30T17:11:21.223Z,15.90
2022-10-30T17:13:54.367Z,15.90
2022-10-30T17:16:24.952Z,15.80
2022-10-30T17:18:54.469Z,15.80
2022-10-30T17:21:37.495Z,15.70
2022-10-30T17:24:04.455Z,15.70
2022-10-30T17:26:35.773Z,15.70
2022-10-30T17:29:02.708Z,15.60
2022-10-30T17:31:38.786Z,15.60
2022-10-30T17:34:06.859Z,15.60
2022-10-30T17:36:33.887Z,15.60
2022-10-30T17:39:00.879Z,15.60
2022-10-30T17:41:28.420Z,15.50
2022-10-30T17:43:55.925Z,15.50
2022-10-30T17:46:23.292Z,15.50
2022-10-30T17:48:50.364Z,15.40
2022-10-30T17:51:18.098Z,15.40
2022-10-30T17:53:46.909Z,15.40
2022-10-30T17:56:21.779Z,15.40
2022-10-30T17:58:48.882Z,15.40
2022-10-30T18:01:20.556Z,15.30
2022-10-30T18:03:48.661Z,15.30
2022-10-30T18:06:17.291Z,15.30
2022-10-30T18:08:47.859Z,15.30
2022-10-30T18:11:20.159Z,15.30
2022-10-30T18:13:48.830Z,15.30
2022-10-30T18:16:16.335Z,15.30
2022-10-30T18:18:44.254Z,15.20
2022-10-30T18:21:14.743Z,15.20
2022-10-30T18:23:56.962Z,15.20
2022-10-30T18:26:25.443Z,15.20
2022-10-30T18:28:52.985Z,15.20
2022-10-30T18:31:21.634Z,15.10
2022-10-30T18:33:48.953Z,15.10
2022-10-30T18:36:17.120Z,15.10
2022-10-30T18:38:44.198Z,15.10
2022-10-30T18:41:20.563Z,15.10
2022-10-30T18:43:47.929Z,15.10
2022-10-30T18:46:19.791Z,15.00
2022-10-30T18:48:46.785Z,15.00
2022-10-30T18:51:18.127Z,15.00
2022-10-30T18:53:51.529Z,15.00
2022-10-30T18:56:22.950Z,14.90
2022-10-30T18:58:53.539Z,14.90
2022-10-30T19:01:24.767Z,14.90
2022-10-30T19:03:51.669Z,14.90
2022-10-30T19:06:21.308Z,14.90
2022-10-30T19:08:48.936Z,14.80
2022-10-30T19:11:22.035Z,14.80
2022-10-30T19:13:51.640Z,14.80
2022-10-30T19:16:19.317Z,14.80
2022-10-30T19:18:47.684Z,14.80
2022-10-30T19:21:28.154Z,14.70
2022-10-30T19:23:56.383Z,14.70
2022-10-30T19:26:23.241Z,14.70
2022-10-30T19:28:50.015Z,14.70
2022-10-30T19:31:21.436Z,14.70
2022-10-30T19:33:52.871Z,14.60
2022-10-30T19:36:34.516Z,14.60
2022-10-30T19:39:07.563Z,14.60
2022-10-30T19:41:35.814Z,14.60
2022-10-30T19:44:02.722Z,14.60
2022-10-30T19:46:29.457Z,14.60
2022-10-30T19:48:58.118Z,14.50
2022-10-30T19:51:28.277Z,14.50
2022-10-30T19:53:55.322Z,14.50
2022-10-30T19:56:22.485Z,14.50
2022-10-30T19:58:49.564Z,14.50
2022-10-30T20:01:16.785Z,14.40
2022-10-30T20:03:57.363Z,14.40
2022-10-30T20:06:30.212Z,14.40
2022-10-30T20:08:57.630Z,14.40
2022-10-30T20:11:24.459Z,14.30
2022-10-30T20:13:53.854Z,14.30
2022-10-30T20:16:21.497Z,14.30
2022-10-30T20:18:48.751Z,14.30
2022-10-30T20:21:15.619Z,14.20
2022-10-30T20:23:42.434Z,14.20
2022-10-30T20:26:21.296Z,14.20
2022-10-30T20:28:49.382Z,14.20
2022-10-30T20:31:16.554Z,14.20
2022-10-30T20:33:46.390Z,14.20
2022-10-30T20:36:14.636Z,14.10
2022-10-30T20:38:41.717Z,14.10
2022-10-30T20:41:19.299Z,14.00
2022-10-30T20:43:50.043Z,14.00
2022-10-30T20:46:17.169Z,14.00
2022-10-30T20:48:44.016Z,14.00
2022-10-30T20:51:11.564Z,14.00
2022-10-30T20:53:38.388Z,14.00
2022-10-30T20:57:03.065Z,13.90
2022-10-30T20:59:44.837Z,13.90
2022-10-30T21:02:15.039Z,13.90
2022-10-30T21:04:42.499Z,13.90
2022-10-30T21:07:13.041Z,13.80
2022-10-30T21:09:45.166Z,13.80
2022-10-30T21:12:15.478Z,13.80
2022-10-30T21:14:46.746Z,13.70
2022-10-30T21:17:17.017Z,13.70
2022-10-30T21:19:44.291Z,13.70
2022-10-30T21:22:11.215Z,13.70
2022-10-30T21:24:40.076Z,13.70
2022-10-30T21:27:06.914Z,13.70
2022-10-30T21:29:35.341Z,13.70
2022-10-30T21:32:09.755Z,13.60
2022-10-30T21:34:37.059Z,13.60
2022-10-30T21:37:06.129Z,13.60
2022-10-30T21:39:34.078Z,13.60
2022-10-30T21:42:35.036Z,13.60
2022-10-30T21:45:11.002Z,13.60
2022-10-30T21:47:38.025Z,13.60
2022-10-30T21:50:11.654Z,13.60
2022-10-30T21:52:56.110Z,13.60
2022-10-30T21:55:37.873Z,13.60
2022-10-30T21:58:07.480Z,13.60
2022-10-30T22:00:34.793Z,13.50
2022-10-30T22:03:03.371Z,13.60
2022-10-30T22:05:32.157Z,13.50
2022-10-30T22:07:59.468Z,13.50
2022-10-30T22:10:26.651Z,13.60
2022-10-30T22:12:53.709Z,13.60
2022-10-30T22:15:20.853Z,13.50
2022-10-30T22:18:36.987Z,13.50
2022-10-30T22:21:09.437Z,13.50
2022-10-30T22:23:41.386Z,13.50
2022-10-30T22:26:27.326Z,13.50
2022-10-30T22:29:20.740Z,13.50
2022-10-30T22:31:49.616Z,13.50
2022-10-30T22:34:19.674Z,13.50
2022-10-30T22:36:56.973Z,13.50
2022-10-30T22:39:33.876Z,13.50
2022-10-30T22:42:02.890Z,13.50
2022-10-30T22:44:41.135Z,13.50
2022-10-30T22:47:08.958Z,13.50
2022-10-30T22:49:41.467Z,13.50
2022-10-30T22:52:08.502Z,13.50
2022-10-30T22:54:35.255Z,13.50
2022-10-30T22:57:02.012Z,13.60
2022-10-30T22:59:30.155Z,13.60
2022-10-30T23:01:57.050Z,13.60
2022-10-30T23:04:28.064Z,13.60
2022-10-30T23:06:54.875Z,13.60
2022-10-30T23:09:25.413Z,13.60
2022-10-30T23:12:09.806Z,13.60
2022-10-30T23:14:46.651Z,13.60
2022-10-30T23:17:13.912Z,13.60
2022-10-30T23:19:41.419Z,13.60
2022-10-30T23:22:16.736Z,13.60
2022-10-30T23:24:47.812Z,13.60
2022-10-30T23:27:19.151Z,13.60
2022-10-30T23:29:48.618Z,13.60
2022-10-30T23:32:16.664Z,13.60
2022-10-30T23:34:45.177Z,13.60
2022-10-30T23:37:40.841Z,13.60
2022-10-30T23:40:11.223Z,13.60
2022-10-30T23:42:41.941Z,13.70
2022-10-30T23:45:23.260Z,13.70
2022-10-30T23:48:02.824Z,13.70
2022-10-30T23:50:31.767Z,13.70
2022-10-30T23:52:58.815Z,13.70
2022-10-30T23:55:27.300Z,13.70
2022-10-30T23:57:54.378Z,13.70
